createdAt,value
2019-02-27T00:00:24.617Z,-4.58
2019-02-27T00:01:25.088Z,-4.56
2019-02-27T00:02:25.560Z,-4.54
2019-02-27T00:03:28.788Z,-4.56
2019-02-27T00:04:26.503Z,-4.54
2019-02-27T00:05:26.973Z,-4.54
2019-02-27T00:06:27.445Z,-4.54
2019-02-27T00:07:27.918Z,-4.56
2019-02-27T00:08:28.391Z,-4.54
2019-02-27T00:09:32.694Z,-4.51
2019-02-27T00:10:29.333Z,-4.51
2019-02-27T00:11:29.806Z,-4.52
2019-02-27T00:12:30.282Z,-4.51
2019-02-27T00:13:30.787Z,-4.51
2019-02-27T00:14:31.784Z,-4.50
2019-02-27T00:15:31.693Z,-4.50
2019-02-27T00:16:32.175Z,-4.48
2019-02-27T00:17:32.639Z,-4.48
2019-02-27T00:18:33.108Z,-4.48
2019-02-27T00:19:33.580Z,-4.47
2019-02-27T00:20:36.885Z,-4.47
2019-02-27T00:21:34.523Z,-4.48
2019-02-27T00:22:34.995Z,-4.47
2019-02-27T00:23:35.677Z,-4.44
2019-02-27T00:24:35.942Z,-4.46
2019-02-27T00:25:36.751Z,-4.44
2019-02-27T00:26:36.883Z,-4.44
2019-02-27T00:27:37.356Z,-4.43
2019-02-27T00:28:37.829Z,-4.44
2019-02-27T00:29:38.300Z,-4.44
2019-02-27T00:30:38.774Z,-4.42
2019-02-27T00:31:39.243Z,-4.42
2019-02-27T00:32:39.716Z,-4.42
2019-02-27T00:33:40.189Z,-4.41
2019-02-27T00:34:40.662Z,-4.42
2019-02-27T00:35:41.132Z,-4.42
2019-02-27T00:36:44.877Z,-4.42
2019-02-27T00:37:42.076Z,-4.42
2019-02-27T00:38:42.549Z,-4.40
2019-02-27T00:39:43.020Z,-4.40
2019-02-27T00:40:43.495Z,-4.42
2019-02-27T00:41:46.145Z,-4.40
2019-02-27T00:42:44.439Z,-4.40
2019-02-27T00:43:44.963Z,-4.40
2019-02-27T00:44:45.383Z,-4.41
2019-02-27T00:45:45.856Z,-4.40
2019-02-27T00:46:46.971Z,-4.40
2019-02-27T00:47:46.799Z,-4.41
2019-02-27T00:48:47.276Z,-4.40
2019-02-27T00:49:47.743Z,-4.40
2019-02-27T00:50:48.216Z,-4.40
2019-02-27T00:51:48.689Z,-4.41
2019-02-27T00:52:51.093Z,-4.40
2019-02-27T00:53:49.630Z,-4.40
2019-02-27T00:54:50.107Z,-4.38
2019-02-27T00:55:50.574Z,-4.40
2019-02-27T00:56:51.046Z,-4.39
2019-02-27T00:57:53.907Z,-4.38
2019-02-27T00:58:51.994Z,-4.39
2019-02-27T00:59:52.462Z,-4.38
2019-02-27T01:00:52.935Z,-4.40
2019-02-27T01:01:53.407Z,-4.40
2019-02-27T01:02:53.878Z,-4.40
2019-02-27T01:03:54.404Z,-4.40
2019-02-27T01:04:54.823Z,-4.38
2019-02-27T01:06:55.769Z,-4.38
2019-02-27T01:07:56.240Z,-4.40
2019-02-27T01:08:56.727Z,-4.38
2019-02-27T01:09:57.185Z,-4.38
2019-02-27T01:10:57.656Z,-4.38
2019-02-27T01:11:58.130Z,-4.38
2019-02-27T01:12:58.804Z,-4.38
2019-02-27T01:13:59.080Z,-4.38
2019-02-27T01:14:59.549Z,-4.38
2019-02-27T01:16:00.017Z,-4.37
2019-02-27T01:17:00.496Z,-4.38
2019-02-27T01:18:00.961Z,-4.39
2019-02-27T01:19:02.240Z,-4.38
2019-02-27T01:20:01.907Z,-4.40
2019-02-27T01:21:02.382Z,-4.38
2019-02-27T01:22:02.851Z,-4.38
2019-02-27T01:23:03.322Z,-4.37
2019-02-27T01:24:03.846Z,-4.36
2019-02-27T01:25:04.268Z,-4.36
2019-02-27T01:26:04.740Z,-4.36
2019-02-27T01:27:05.436Z,-4.36
2019-02-27T01:28:05.685Z,-4.37
2019-02-27T01:29:06.158Z,-4.36
2019-02-27T01:30:06.629Z,-4.36
2019-02-27T01:31:07.099Z,-4.36
2019-02-27T01:32:07.574Z,-4.34
2019-02-27T01:33:08.044Z,-4.34
2019-02-27T01:34:11.179Z,-4.35
2019-02-27T01:35:08.993Z,-4.34
2019-02-27T01:36:09.457Z,-4.34
2019-02-27T01:37:09.928Z,-4.34
2019-02-27T01:38:10.400Z,-4.36
2019-02-27T01:39:11.334Z,-4.35
2019-02-27T01:40:11.341Z,-4.37
2019-02-27T01:41:11.812Z,-4.33
2019-02-27T01:42:12.281Z,-4.34
2019-02-27T01:43:12.750Z,-4.33
2019-02-27T01:44:13.784Z,-4.34
2019-02-27T01:45:13.690Z,-4.33
2019-02-27T01:46:14.157Z,-4.33
2019-02-27T01:47:14.624Z,-4.34
2019-02-27T01:48:15.094Z,-4.34
2019-02-27T01:49:16.118Z,-4.32
2019-02-27T01:50:16.073Z,-4.34
2019-02-27T01:51:16.506Z,-4.32
2019-02-27T01:52:16.969Z,-4.32
2019-02-27T01:53:17.434Z,-4.33
2019-02-27T01:54:17.904Z,-4.32
2019-02-27T01:55:21.690Z,-4.32
2019-02-27T01:56:18.840Z,-4.32
2019-02-27T01:57:19.307Z,-4.32
2019-02-27T01:58:19.778Z,-4.32
2019-02-27T01:59:20.243Z,-4.32
2019-02-27T02:00:23.016Z,-4.31
2019-02-27T02:01:21.178Z,-4.31
2019-02-27T02:02:21.646Z,-4.30
2019-02-27T02:03:22.114Z,-4.32
2019-02-27T02:04:22.632Z,-4.30
2019-02-27T02:05:26.131Z,-4.34
2019-02-27T02:06:23.519Z,-4.31
2019-02-27T02:07:23.984Z,-4.32
2019-02-27T02:08:24.458Z,-4.32
2019-02-27T02:09:24.924Z,-4.32
2019-02-27T02:10:28.077Z,-4.32
2019-02-27T02:11:25.858Z,-4.33
2019-02-27T02:12:26.332Z,-4.32
2019-02-27T02:13:26.808Z,-4.30
2019-02-27T02:14:27.324Z,-4.30
2019-02-27T02:15:27.908Z,-4.32
2019-02-27T02:16:28.201Z,-4.32
2019-02-27T02:17:28.669Z,-4.31
2019-02-27T02:18:29.137Z,-4.32
2019-02-27T02:19:29.607Z,-4.32
2019-02-27T02:20:30.076Z,-4.33
2019-02-27T02:21:32.083Z,-4.32
2019-02-27T02:22:31.014Z,-4.30
2019-02-27T02:23:31.482Z,-4.32
2019-02-27T02:24:31.954Z,-4.32
2019-02-27T02:25:32.422Z,-4.34
2019-02-27T02:26:35.037Z,-4.32
2019-02-27T02:27:33.359Z,-4.32
2019-02-27T02:28:33.830Z,-4.32
2019-02-27T02:29:34.298Z,-4.34
2019-02-27T02:30:34.769Z,-4.32
2019-02-27T02:31:40.796Z,-4.31
2019-02-27T02:32:35.709Z,-4.30
2019-02-27T02:33:36.180Z,-4.32
2019-02-27T02:34:39.879Z,-4.32
2019-02-27T02:35:37.122Z,-4.31
2019-02-27T02:36:37.589Z,-4.32
2019-02-27T02:37:38.217Z,-4.32
2019-02-27T02:38:38.526Z,-4.32
2019-02-27T02:39:39.051Z,-4.31
2019-02-27T02:40:39.669Z,-4.32
2019-02-27T02:41:46.356Z,-4.32
2019-02-27T02:42:40.410Z,-4.31
2019-02-27T02:43:41.982Z,-4.31
2019-02-27T02:44:41.351Z,-4.32
2019-02-27T02:45:41.821Z,-4.33
2019-02-27T02:46:45.551Z,-4.32
2019-02-27T02:47:42.967Z,-4.30
2019-02-27T02:48:43.232Z,-4.31
2019-02-27T02:49:44.029Z,-4.32
2019-02-27T02:50:44.173Z,-4.30
2019-02-27T02:51:44.672Z,-4.34
2019-02-27T02:52:45.116Z,-4.30
2019-02-27T02:53:48.451Z,-4.30
2019-02-27T02:54:46.055Z,-4.32
2019-02-27T02:55:48.797Z,-4.32
2019-02-27T02:56:47.003Z,-4.30
2019-02-27T02:57:47.468Z,-4.32
2019-02-27T02:58:48.876Z,-4.30
2019-02-27T02:59:48.716Z,-4.30
2019-02-27T03:00:48.898Z,-4.30
2019-02-27T03:01:50.185Z,-4.30
2019-02-27T03:02:49.822Z,-4.31
2019-02-27T03:03:50.294Z,-4.30
2019-02-27T03:04:50.770Z,-4.31
2019-02-27T03:05:51.238Z,-4.32
2019-02-27T03:06:51.707Z,-4.30
2019-02-27T03:07:52.178Z,-4.31
2019-02-27T03:08:55.302Z,-4.30
2019-02-27T03:09:53.121Z,-4.30
2019-02-27T03:10:53.593Z,-4.30
2019-02-27T03:11:55.624Z,-4.31
2019-02-27T03:12:54.536Z,-4.30
2019-02-27T03:13:55.006Z,-4.30
2019-02-27T03:14:55.477Z,-4.30
2019-02-27T03:15:55.946Z,-4.30
2019-02-27T03:16:56.419Z,-4.32
2019-02-27T03:17:56.890Z,-4.31
2019-02-27T03:18:57.363Z,-4.30
2019-02-27T03:19:57.830Z,-4.32
2019-02-27T03:20:58.307Z,-4.31
2019-02-27T03:22:03.225Z,-4.31
2019-02-27T03:22:59.246Z,-4.31
2019-02-27T03:23:59.720Z,-4.32
2019-02-27T03:25:03.469Z,-4.32
2019-02-27T03:26:00.666Z,-4.32
2019-02-27T03:27:01.133Z,-4.32
2019-02-27T03:28:04.717Z,-4.32
2019-02-27T03:29:02.077Z,-4.33
2019-02-27T03:30:02.564Z,-4.32
2019-02-27T03:31:03.019Z,-4.34
2019-02-27T03:32:03.518Z,-4.35
2019-02-27T03:33:03.964Z,-4.34
2019-02-27T03:34:08.132Z,-4.34
2019-02-27T03:35:04.905Z,-4.34
2019-02-27T03:36:05.377Z,-4.34
2019-02-27T03:37:05.852Z,-4.36
2019-02-27T03:38:06.321Z,-4.35
2019-02-27T03:39:06.794Z,-4.36
2019-02-27T03:40:10.780Z,-4.34
2019-02-27T03:41:07.740Z,-4.33
2019-02-27T03:42:08.215Z,-4.36
2019-02-27T03:43:10.417Z,-4.36
2019-02-27T03:44:09.154Z,-4.36
2019-02-27T03:45:09.624Z,-4.36
2019-02-27T03:46:10.101Z,-4.36
2019-02-27T03:47:15.652Z,-4.38
2019-02-27T03:48:11.040Z,-4.36
2019-02-27T03:49:11.511Z,-4.38
2019-02-27T03:50:14.881Z,-4.36
2019-02-27T03:51:12.455Z,-4.37
2019-02-27T03:52:12.928Z,-4.38
2019-02-27T03:53:13.402Z,-4.38
2019-02-27T03:54:13.872Z,-4.38
2019-02-27T03:55:14.390Z,-4.38
2019-02-27T03:56:14.813Z,-4.37
2019-02-27T03:57:19.067Z,-4.38
2019-02-27T03:58:15.761Z,-4.38
2019-02-27T03:59:16.231Z,-4.38
2019-02-27T04:00:19.159Z,-4.38
2019-02-27T04:01:17.202Z,-4.37
2019-02-27T04:02:17.645Z,-4.38
2019-02-27T04:03:18.555Z,-4.38
2019-02-27T04:04:18.588Z,-4.38
2019-02-27T04:05:19.061Z,-4.38
2019-02-27T04:06:21.354Z,-4.38
2019-02-27T04:07:20.004Z,-4.38
2019-02-27T04:08:20.477Z,-4.38
2019-02-27T04:09:20.947Z,-4.39
2019-02-27T04:10:21.470Z,-4.40
2019-02-27T04:11:21.891Z,-4.40
2019-02-27T04:12:22.368Z,-4.39
2019-02-27T04:13:26.395Z,-4.40
2019-02-27T04:14:23.649Z,-4.40
2019-02-27T04:15:23.779Z,-4.40
2019-02-27T04:16:28.809Z,-4.40
2019-02-27T04:17:24.724Z,-4.40
2019-02-27T04:18:28.471Z,-4.40
2019-02-27T04:19:25.668Z,-4.40
2019-02-27T04:20:26.141Z,-4.40
2019-02-27T04:21:26.611Z,-4.41
2019-02-27T04:22:27.083Z,-4.41
2019-02-27T04:23:27.562Z,-4.42
2019-02-27T04:24:28.028Z,-4.42
2019-02-27T04:25:31.533Z,-4.43
2019-02-27T04:26:28.978Z,-4.42
2019-02-27T04:27:29.444Z,-4.41
2019-02-27T04:28:30.641Z,-4.43
2019-02-27T04:29:30.393Z,-4.43
2019-02-27T04:30:30.964Z,-4.44
2019-02-27T04:31:31.337Z,-4.43
2019-02-27T04:32:31.802Z,-4.42
2019-02-27T04:33:32.276Z,-4.42
2019-02-27T04:34:33.261Z,-4.43
2019-02-27T04:35:34.364Z,-4.44
2019-02-27T04:36:33.690Z,-4.42
2019-02-27T04:37:34.161Z,-4.44
2019-02-27T04:38:34.635Z,-4.44
2019-02-27T04:39:35.797Z,-4.44
2019-02-27T04:40:35.921Z,-4.44
2019-02-27T04:41:36.051Z,-4.46
2019-02-27T04:42:36.525Z,-4.46
2019-02-27T04:43:36.994Z,-4.45
2019-02-27T04:44:38.892Z,-4.44
2019-02-27T04:45:37.942Z,-4.47
2019-02-27T04:46:38.410Z,-4.46
2019-02-27T04:47:38.882Z,-4.45
2019-02-27T04:48:39.356Z,-4.46
2019-02-27T04:49:39.826Z,-4.46
2019-02-27T04:50:41.701Z,-4.46
2019-02-27T04:51:40.770Z,-4.46
2019-02-27T04:52:41.243Z,-4.48
2019-02-27T04:53:41.717Z,-4.46
2019-02-27T04:54:42.239Z,-4.45
2019-02-27T04:55:42.657Z,-4.44
2019-02-27T04:56:43.131Z,-4.44
2019-02-27T04:57:43.602Z,-4.45
2019-02-27T04:58:44.077Z,-4.46
2019-02-27T04:59:44.546Z,-4.45
2019-02-27T05:00:45.020Z,-4.44
2019-02-27T05:01:45.491Z,-4.44
2019-02-27T05:02:45.962Z,-4.45
2019-02-27T05:03:46.444Z,-4.44
2019-02-27T05:04:46.907Z,-4.45
2019-02-27T05:05:47.379Z,-4.44
2019-02-27T05:06:47.858Z,-4.45
2019-02-27T05:07:48.322Z,-4.44
2019-02-27T05:08:48.795Z,-4.44
2019-02-27T05:09:49.267Z,-4.44
2019-02-27T05:10:49.742Z,-4.44
2019-02-27T05:11:50.212Z,-4.45
2019-02-27T05:12:50.686Z,-4.43
2019-02-27T05:13:54.141Z,-4.44
2019-02-27T05:14:51.626Z,-4.42
2019-02-27T05:15:52.098Z,-4.44
2019-02-27T05:16:52.574Z,-4.42
2019-02-27T05:17:55.488Z,-4.44
2019-02-27T05:18:53.518Z,-4.42
2019-02-27T05:19:53.987Z,-4.42
2019-02-27T05:20:54.460Z,-4.43
2019-02-27T05:21:54.932Z,-4.42
2019-02-27T05:23:00.099Z,-4.42
2019-02-27T05:23:55.876Z,-4.42
2019-02-27T05:24:56.348Z,-4.41
2019-02-27T05:25:56.873Z,-4.42
2019-02-27T05:26:58.110Z,-4.40
2019-02-27T05:28:01.053Z,-4.40
2019-02-27T05:28:58.237Z,-4.41
2019-02-27T05:30:00.076Z,-4.42
2019-02-27T05:30:59.182Z,-4.42
2019-02-27T05:31:59.653Z,-4.41
2019-02-27T05:33:02.258Z,-4.40
2019-02-27T05:34:00.598Z,-4.40
2019-02-27T05:35:01.070Z,-4.38
2019-02-27T05:36:01.542Z,-4.40
2019-02-27T05:37:05.053Z,-4.40
2019-02-27T05:38:02.486Z,-4.38
2019-02-27T05:39:02.958Z,-4.36
2019-02-27T05:40:03.430Z,-4.38
2019-02-27T05:41:03.902Z,-4.37
2019-02-27T05:42:06.458Z,-4.37
2019-02-27T05:43:04.847Z,-4.36
2019-02-27T05:44:05.322Z,-4.38
2019-02-27T05:45:05.791Z,-4.36
2019-02-27T05:46:06.315Z,-4.35
2019-02-27T05:47:08.660Z,-4.36
2019-02-27T05:48:07.210Z,-4.36
2019-02-27T05:49:07.679Z,-4.35
2019-02-27T05:50:08.152Z,-4.36
2019-02-27T05:51:10.693Z,-4.36
2019-02-27T05:52:09.095Z,-4.34
2019-02-27T05:53:10.622Z,-4.34
2019-02-27T05:54:10.041Z,-4.32
2019-02-27T05:55:10.513Z,-4.33
2019-02-27T05:56:15.609Z,-4.32
2019-02-27T05:57:11.463Z,-4.32
2019-02-27T05:58:11.929Z,-4.32
2019-02-27T05:59:12.405Z,-4.31
2019-02-27T06:00:12.873Z,-4.30
2019-02-27T06:01:13.396Z,-4.32
2019-02-27T06:02:13.820Z,-4.29
2019-02-27T06:03:15.937Z,-4.30
2019-02-27T06:04:14.761Z,-4.30
2019-02-27T06:05:15.235Z,-4.30
2019-02-27T06:06:15.758Z,-4.30
2019-02-27T06:07:18.683Z,-4.29
2019-02-27T06:08:16.653Z,-4.28
2019-02-27T06:10:20.217Z,-4.26
2019-02-27T06:11:18.164Z,-4.27
2019-02-27T06:12:18.542Z,-4.26
2019-02-27T06:13:19.014Z,-4.27
2019-02-27T06:14:21.397Z,-4.24
2019-02-27T06:15:19.957Z,-4.26
2019-02-27T06:16:20.428Z,-4.24
2019-02-27T06:17:20.957Z,-4.26
2019-02-27T06:18:23.470Z,-4.25
2019-02-27T06:19:21.846Z,-4.24
2019-02-27T06:20:22.317Z,-4.24
2019-02-27T06:21:22.791Z,-4.24
2019-02-27T06:22:23.264Z,-4.24
2019-02-27T06:23:23.733Z,-4.24
2019-02-27T06:24:24.205Z,-4.22
2019-02-27T06:25:24.680Z,-4.22
2019-02-27T06:26:25.152Z,-4.22
2019-02-27T06:27:25.623Z,-4.20
2019-02-27T06:28:26.098Z,-4.22
2019-02-27T06:29:28.302Z,-4.21
2019-02-27T06:30:27.916Z,-4.20
2019-02-27T06:31:27.514Z,-4.20
2019-02-27T06:32:27.983Z,-4.20
2019-02-27T06:33:28.457Z,-4.19
2019-02-27T06:34:28.929Z,-4.20
2019-02-27T06:35:33.499Z,-4.18
2019-02-27T06:36:29.873Z,-4.18
2019-02-27T06:37:30.344Z,-4.18
2019-02-27T06:38:30.817Z,-4.18
2019-02-27T06:39:34.171Z,-4.16
2019-02-27T06:40:31.758Z,-4.18
2019-02-27T06:41:32.230Z,-4.16
2019-02-27T06:42:32.702Z,-4.14
2019-02-27T06:43:33.171Z,-4.14
2019-02-27T06:44:33.642Z,-4.14
2019-02-27T06:45:34.113Z,-4.14
2019-02-27T06:46:34.585Z,-4.14
2019-02-27T06:47:35.534Z,-4.14
2019-02-27T06:48:35.523Z,-4.14
2019-02-27T06:49:35.991Z,-4.16
2019-02-27T06:50:36.460Z,-4.12
2019-02-27T06:51:36.931Z,-4.10
2019-02-27T06:52:37.399Z,-4.10
2019-02-27T06:53:37.869Z,-4.10
2019-02-27T06:54:38.337Z,-4.10
2019-02-27T06:55:38.805Z,-4.08
2019-02-27T06:56:39.273Z,-4.08
2019-02-27T06:57:41.262Z,-4.08
2019-02-27T06:58:40.212Z,-4.08
2019-02-27T06:59:40.678Z,-4.07
2019-02-27T07:00:41.148Z,-4.06
2019-02-27T07:01:41.615Z,-4.07
2019-02-27T07:02:42.081Z,-4.04
2019-02-27T07:03:42.548Z,-4.05
2019-02-27T07:04:43.017Z,-4.04
2019-02-27T07:05:45.516Z,-4.04
2019-02-27T07:06:43.954Z,-4.03
2019-02-27T07:07:44.422Z,-4.00
2019-02-27T07:08:44.889Z,-4.04
2019-02-27T07:09:45.921Z,-4.02
2019-02-27T07:10:45.831Z,-4.04
2019-02-27T07:11:48.823Z,-4.02
2019-02-27T07:12:46.765Z,-4.02
2019-02-27T07:13:47.229Z,-4.02
2019-02-27T07:14:47.698Z,-4.00
2019-02-27T07:15:48.843Z,-3.98
2019-02-27T07:16:48.634Z,-3.98
2019-02-27T07:17:49.104Z,-3.98
2019-02-27T07:18:49.571Z,-3.98
2019-02-27T07:19:50.425Z,-3.97
2019-02-27T07:20:50.508Z,-3.96
2019-02-27T07:22:51.446Z,-3.96
2019-02-27T07:23:57.568Z,-3.95
2019-02-27T07:24:52.382Z,-3.94
2019-02-27T07:25:52.859Z,-3.94
2019-02-27T07:26:53.320Z,-3.94
2019-02-27T07:27:53.789Z,-3.92
2019-02-27T07:28:54.258Z,-3.92
2019-02-27T07:29:54.729Z,-3.91
2019-02-27T07:30:55.198Z,-3.90
2019-02-27T07:31:57.164Z,-3.90
2019-02-27T07:32:56.136Z,-3.90
2019-02-27T07:33:56.607Z,-3.90
2019-02-27T07:34:57.075Z,-3.89
2019-02-27T07:35:57.549Z,-3.88
2019-02-27T07:36:58.013Z,-3.88
2019-02-27T07:37:58.489Z,-3.88
2019-02-27T07:38:58.954Z,-3.86
2019-02-27T07:39:59.423Z,-3.86
2019-02-27T07:40:59.894Z,-3.86
2019-02-27T07:42:00.363Z,-3.85
2019-02-27T07:43:03.262Z,-3.84
2019-02-27T07:44:01.304Z,-3.84
2019-02-27T07:45:01.773Z,-3.84
2019-02-27T07:46:02.243Z,-3.82
2019-02-27T07:47:02.719Z,-3.80
2019-02-27T07:48:03.184Z,-3.82
2019-02-27T07:49:03.653Z,-3.80
2019-02-27T07:50:06.345Z,-3.81
2019-02-27T07:51:04.596Z,-3.80
2019-02-27T07:52:05.065Z,-3.78
2019-02-27T07:53:05.542Z,-3.78
2019-02-27T07:54:06.010Z,-3.78
2019-02-27T07:55:18.606Z,-3.77
2019-02-27T07:56:06.950Z,-3.76
2019-02-27T07:57:07.421Z,-3.75
2019-02-27T07:58:07.889Z,-3.75
2019-02-27T07:59:08.360Z,-3.72
2019-02-27T08:00:08.830Z,-3.72
2019-02-27T08:01:09.302Z,-3.72
2019-02-27T08:02:09.773Z,-3.71
2019-02-27T08:03:12.954Z,-3.70
2019-02-27T08:04:10.714Z,-3.68
2019-02-27T08:05:11.185Z,-3.68
2019-02-27T08:06:11.671Z,-3.68
2019-02-27T08:07:12.415Z,-3.66
2019-02-27T08:08:12.601Z,-3.66
2019-02-27T08:09:13.068Z,-3.64
2019-02-27T08:10:13.551Z,-3.64
2019-02-27T08:11:14.233Z,-3.63
2019-02-27T08:12:14.487Z,-3.64
2019-02-27T08:13:14.955Z,-3.63
2019-02-27T08:14:15.425Z,-3.62
2019-02-27T08:15:15.906Z,-3.58
2019-02-27T08:16:16.369Z,-3.60
2019-02-27T08:17:17.894Z,-3.59
2019-02-27T08:18:20.508Z,-3.58
2019-02-27T08:19:17.791Z,-3.58
2019-02-27T08:20:20.990Z,-3.56
2019-02-27T08:21:18.725Z,-3.56
2019-02-27T08:22:19.196Z,-3.54
2019-02-27T08:23:19.668Z,-3.53
2019-02-27T08:24:20.141Z,-3.54
2019-02-27T08:25:20.610Z,-3.52
2019-02-27T08:26:21.080Z,-3.52
2019-02-27T08:27:21.553Z,-3.51
2019-02-27T08:28:22.024Z,-3.50
2019-02-27T08:29:22.496Z,-3.49
2019-02-27T08:30:22.966Z,-3.49
2019-02-27T08:31:27.960Z,-3.48
2019-02-27T08:32:23.912Z,-3.46
2019-02-27T08:33:24.434Z,-3.46
2019-02-27T08:34:24.853Z,-3.45
2019-02-27T08:35:25.326Z,-3.44
2019-02-27T08:36:25.797Z,-3.44
2019-02-27T08:37:26.268Z,-3.42
2019-02-27T08:38:26.739Z,-3.42
2019-02-27T08:39:27.214Z,-3.40
2019-02-27T08:40:27.684Z,-3.40
2019-02-27T08:41:29.126Z,-3.40
2019-02-27T08:42:28.626Z,-3.37
2019-02-27T08:43:30.525Z,-3.38
2019-02-27T08:44:29.569Z,-3.37
2019-02-27T08:45:30.242Z,-3.36
2019-02-27T08:46:30.514Z,-3.36
2019-02-27T08:47:30.987Z,-3.36
2019-02-27T08:48:31.509Z,-3.34
2019-02-27T08:49:31.998Z,-3.33
2019-02-27T08:50:32.402Z,-3.31
2019-02-27T08:51:32.874Z,-3.32
2019-02-27T08:52:33.345Z,-3.30
2019-02-27T08:53:34.527Z,-3.30
2019-02-27T08:54:34.292Z,-3.28
2019-02-27T08:55:38.938Z,-3.28
2019-02-27T08:56:35.231Z,-3.28
2019-02-27T08:57:35.704Z,-3.26
2019-02-27T08:58:36.174Z,-3.25
2019-02-27T08:59:36.916Z,-3.26
2019-02-27T09:00:37.121Z,-3.26
2019-02-27T09:01:37.908Z,-3.22
2019-02-27T09:02:39.667Z,-3.23
2019-02-27T09:03:38.534Z,-3.23
2019-02-27T09:04:39.012Z,-3.20
2019-02-27T09:05:39.482Z,-3.21
2019-02-27T09:06:39.950Z,-3.20
2019-02-27T09:07:40.422Z,-3.18
2019-02-27T09:08:43.202Z,-3.19
2019-02-27T09:09:41.367Z,-3.18
2019-02-27T09:10:41.837Z,-3.18
2019-02-27T09:11:42.309Z,-3.16
2019-02-27T09:12:45.399Z,-3.16
2019-02-27T09:13:43.254Z,-3.15
2019-02-27T09:14:43.728Z,-3.14
2019-02-27T09:15:44.198Z,-3.14
2019-02-27T09:16:44.671Z,-3.14
2019-02-27T09:17:45.149Z,-3.12
2019-02-27T09:18:45.621Z,-3.10
2019-02-27T09:19:46.490Z,-3.11
2019-02-27T09:20:46.559Z,-3.10
2019-02-27T09:21:47.031Z,-3.10
2019-02-27T09:22:47.604Z,-3.08
2019-02-27T09:23:47.975Z,-3.07
2019-02-27T09:24:48.445Z,-3.08
2019-02-27T09:25:56.774Z,-3.05
2019-02-27T09:26:49.392Z,-3.06
2019-02-27T09:27:49.863Z,-3.04
2019-02-27T09:28:50.347Z,-3.04
2019-02-27T09:29:54.400Z,-3.04
2019-02-27T09:30:51.278Z,-3.03
2019-02-27T09:31:51.751Z,-3.02
2019-02-27T09:32:52.225Z,-3.00
2019-02-27T09:33:53.446Z,-3.00
2019-02-27T09:34:53.167Z,-3.02
2019-02-27T09:35:53.640Z,-3.00
2019-02-27T09:36:54.118Z,-2.99
2019-02-27T09:37:54.584Z,-2.98
2019-02-27T09:38:57.522Z,-2.98
2019-02-27T09:39:55.529Z,-2.97
2019-02-27T09:40:56.000Z,-2.96
2019-02-27T09:41:56.814Z,-2.94
2019-02-27T09:42:56.944Z,-2.94
2019-02-27T09:43:58.592Z,-2.94
2019-02-27T09:44:57.889Z,-2.93
2019-02-27T09:45:58.362Z,-2.92
2019-02-27T09:46:58.848Z,-2.91
2019-02-27T09:48:00.544Z,-2.92
2019-02-27T09:48:59.781Z,-2.90
2019-02-27T09:50:00.248Z,-2.90
2019-02-27T09:51:00.722Z,-2.91
2019-02-27T09:52:01.194Z,-2.88
2019-02-27T09:53:03.625Z,-2.90
2019-02-27T09:54:02.139Z,-2.88
2019-02-27T09:55:02.613Z,-2.88
2019-02-27T09:56:03.085Z,-2.88
2019-02-27T09:57:03.560Z,-2.86
2019-02-27T09:58:04.026Z,-2.84
2019-02-27T09:59:04.500Z,-2.86
2019-02-27T10:00:04.973Z,-2.84
2019-02-27T10:01:05.447Z,-2.84
2019-02-27T10:02:06.299Z,-2.83
2019-02-27T10:03:06.387Z,-2.82
2019-02-27T10:04:06.866Z,-2.81
2019-02-27T10:05:07.333Z,-2.80
2019-02-27T10:06:08.830Z,-2.80
2019-02-27T10:07:08.277Z,-2.79
2019-02-27T10:08:08.754Z,-2.77
2019-02-27T10:09:09.272Z,-2.78
2019-02-27T10:10:10.407Z,-2.77
2019-02-27T10:11:10.165Z,-2.76
2019-02-27T10:12:10.638Z,-2.76
2019-02-27T10:13:11.110Z,-2.76
2019-02-27T10:14:14.119Z,-2.76
2019-02-27T10:15:12.058Z,-2.76
2019-02-27T10:16:12.528Z,-2.72
2019-02-27T10:17:13.001Z,-2.73
2019-02-27T10:18:18.354Z,-2.73
2019-02-27T10:19:13.954Z,-2.72
2019-02-27T10:20:14.417Z,-2.72
2019-02-27T10:21:14.888Z,-2.71
2019-02-27T10:22:17.653Z,-2.70
2019-02-27T10:23:15.836Z,-2.69
2019-02-27T10:24:16.304Z,-2.68
2019-02-27T10:25:16.826Z,-2.70
2019-02-27T10:26:19.384Z,-2.67
2019-02-27T10:27:17.722Z,-2.66
2019-02-27T10:28:18.196Z,-2.66
2019-02-27T10:29:19.098Z,-2.66
2019-02-27T10:30:19.138Z,-2.64
2019-02-27T10:31:19.611Z,-2.64
2019-02-27T10:32:20.085Z,-2.64
2019-02-27T10:33:20.560Z,-2.64
2019-02-27T10:34:21.026Z,-2.62
2019-02-27T10:35:22.944Z,-2.62
2019-02-27T10:36:21.973Z,-2.62
2019-02-27T10:37:22.533Z,-2.61
2019-02-27T10:38:22.916Z,-2.58
2019-02-27T10:39:23.388Z,-2.59
2019-02-27T10:40:23.870Z,-2.60
2019-02-27T10:41:24.339Z,-2.60
2019-02-27T10:42:24.805Z,-2.58
2019-02-27T10:43:25.277Z,-2.59
2019-02-27T10:44:25.901Z,-2.58
2019-02-27T10:45:26.224Z,-2.56
2019-02-27T10:46:26.693Z,-2.55
2019-02-27T10:47:27.167Z,-2.56
2019-02-27T10:48:27.641Z,-2.56
2019-02-27T10:49:28.116Z,-2.54
2019-02-27T10:50:28.584Z,-2.56
2019-02-27T10:51:30.437Z,-2.55
2019-02-27T10:52:29.529Z,-2.53
2019-02-27T10:53:30.000Z,-2.52
2019-02-27T10:54:30.473Z,-2.52
2019-02-27T10:55:30.947Z,-2.52
2019-02-27T10:56:31.417Z,-2.52
2019-02-27T10:57:37.468Z,-2.51
2019-02-27T10:58:32.361Z,-2.50
2019-02-27T10:59:32.834Z,-2.51
2019-02-27T11:00:33.307Z,-2.50
2019-02-27T11:01:36.366Z,-2.50
2019-02-27T11:02:34.254Z,-2.49
2019-02-27T11:03:34.723Z,-2.46
2019-02-27T11:04:36.304Z,-2.48
2019-02-27T11:05:35.670Z,-2.48
2019-02-27T11:06:37.733Z,-2.48
2019-02-27T11:07:36.613Z,-2.46
2019-02-27T11:08:37.085Z,-2.48
2019-02-27T11:09:40.848Z,-2.48
2019-02-27T11:10:38.029Z,-2.47
2019-02-27T11:11:38.502Z,-2.46
2019-02-27T11:12:38.974Z,-2.46
2019-02-27T11:13:39.447Z,-2.46
2019-02-27T11:14:39.919Z,-2.46
2019-02-27T11:15:41.538Z,-2.44
2019-02-27T11:16:40.866Z,-2.45
2019-02-27T11:17:41.336Z,-2.44
2019-02-27T11:18:42.782Z,-2.45
2019-02-27T11:19:42.280Z,-2.44
2019-02-27T11:20:42.754Z,-2.43
2019-02-27T11:21:43.226Z,-2.44
2019-02-27T11:22:43.696Z,-2.44
2019-02-27T11:23:44.170Z,-2.43
2019-02-27T11:24:49.103Z,-2.44
2019-02-27T11:25:45.114Z,-2.44
2019-02-27T11:26:45.586Z,-2.46
2019-02-27T11:27:46.059Z,-2.44
2019-02-27T11:28:47.775Z,-2.42
2019-02-27T11:29:47.003Z,-2.44
2019-02-27T11:30:47.475Z,-2.43
2019-02-27T11:31:47.947Z,-2.44
2019-02-27T11:32:48.420Z,-2.42
2019-02-27T11:33:48.892Z,-2.42
2019-02-27T11:34:49.366Z,-2.42
2019-02-27T11:35:49.837Z,-2.42
2019-02-27T11:36:50.311Z,-2.42
2019-02-27T11:37:50.792Z,-2.42
2019-02-27T11:38:51.256Z,-2.42
2019-02-27T11:39:51.726Z,-2.43
2019-02-27T11:40:52.322Z,-2.43
2019-02-27T11:41:52.673Z,-2.43
2019-02-27T11:42:53.142Z,-2.41
2019-02-27T11:43:53.616Z,-2.42
2019-02-27T11:44:54.089Z,-2.42
2019-02-27T11:45:57.812Z,-2.42
2019-02-27T11:46:58.990Z,-2.41
2019-02-27T11:47:55.504Z,-2.42
2019-02-27T11:48:57.067Z,-2.42
2019-02-27T11:49:56.452Z,-2.42
2019-02-27T11:50:56.921Z,-2.43
2019-02-27T11:51:57.392Z,-2.42
2019-02-27T11:53:01.823Z,-2.42
2019-02-27T11:53:58.342Z,-2.42
2019-02-27T11:54:58.812Z,-2.44
2019-02-27T11:55:59.285Z,-2.43
2019-02-27T11:56:59.759Z,-2.42
2019-02-27T11:58:04.623Z,-2.42
2019-02-27T11:59:00.699Z,-2.42
2019-02-27T12:00:01.173Z,-2.41
2019-02-27T12:01:01.645Z,-2.42
2019-02-27T12:02:02.115Z,-2.42
2019-02-27T12:03:02.585Z,-2.44
2019-02-27T12:04:03.059Z,-2.42
2019-02-27T12:05:03.532Z,-2.43
2019-02-27T12:06:05.279Z,-2.42
2019-02-27T12:07:04.470Z,-2.44
2019-02-27T12:08:04.942Z,-2.44
2019-02-27T12:09:05.413Z,-2.42
2019-02-27T12:10:06.677Z,-2.43
2019-02-27T12:11:06.356Z,-2.44
2019-02-27T12:12:06.825Z,-2.43
2019-02-27T12:13:07.290Z,-2.44
2019-02-27T12:14:09.100Z,-2.43
2019-02-27T12:15:09.103Z,-2.44
2019-02-27T12:16:10.604Z,-2.43
2019-02-27T12:17:09.168Z,-2.43
2019-02-27T12:18:09.634Z,-2.42
2019-02-27T12:19:10.104Z,-2.43
2019-02-27T12:20:10.570Z,-2.44
2019-02-27T12:21:11.379Z,-2.45
2019-02-27T12:22:11.514Z,-2.44
2019-02-27T12:23:11.976Z,-2.44
2019-02-27T12:24:12.443Z,-2.44
2019-02-27T12:25:12.913Z,-2.44
2019-02-27T12:26:13.380Z,-2.43
2019-02-27T12:27:25.704Z,-2.44
2019-02-27T12:28:15.238Z,-2.44
2019-02-27T12:29:14.786Z,-2.44
2019-02-27T12:30:15.253Z,-2.46
2019-02-27T12:31:15.739Z,-2.45
2019-02-27T12:32:16.188Z,-2.44
2019-02-27T12:33:16.681Z,-2.43
2019-02-27T12:34:17.123Z,-2.43
2019-02-27T12:36:18.746Z,-2.44
2019-02-27T12:37:27.725Z,-2.43
2019-02-27T12:38:19.002Z,-2.44
2019-02-27T12:39:19.466Z,-2.44
2019-02-27T12:40:24.029Z,-2.44
2019-02-27T12:41:20.400Z,-2.45
2019-02-27T12:42:20.871Z,-2.44
2019-02-27T12:43:21.338Z,-2.44
2019-02-27T12:44:21.806Z,-2.43
2019-02-27T12:45:22.295Z,-2.45
2019-02-27T12:46:22.744Z,-2.44
2019-02-27T12:47:23.215Z,-2.45
2019-02-27T12:48:23.682Z,-2.45
2019-02-27T12:49:24.154Z,-2.44
2019-02-27T12:50:27.033Z,-2.44
2019-02-27T12:51:25.088Z,-2.46
2019-02-27T12:52:25.561Z,-2.46
2019-02-27T12:53:26.049Z,-2.46
2019-02-27T12:54:27.423Z,-2.46
2019-02-27T12:55:26.970Z,-2.46
2019-02-27T12:56:27.440Z,-2.46
2019-02-27T12:57:27.906Z,-2.46
2019-02-27T12:58:28.377Z,-2.44
2019-02-27T12:59:30.705Z,-2.44
2019-02-27T13:00:29.315Z,-2.44
2019-02-27T13:01:29.783Z,-2.44
2019-02-27T13:02:35.681Z,-2.45